Aeroporto :
LOGIN :

Iscrizione | Disclaimer

   EN    FR    IT 

 










Sommario :    VFR   VFR Marginale   IFR   IFR Intensivo   IFR Molto Intensivo
Visibilità : 
Base nubi : 
>= 8 km
>= 3000ft
5 / 8 km
1000 / 3000 ft
1500m / 5 km
500 / 1000 ft
800 / 1500m
200 / 500 ft
< 800m
< 200 ft
Simboli :   Temporali  Nebbia  Neve Forte  Precipitazioni Forti  Vento > 20 kt
SIGMETs :   Varie  Temporali  Ghiacco  Turbolenza  Onda orograficha  Ceneri Vulcaniche






- Altitudine del aeroporto : 358 ft


EGTC - Cranfield

ULTIMO METAR :
  • 130920Z 23006KT CAVOK 03/03 Q1000

METARs OBSOLETI :
  • 130850Z 25005KT 220V280 CAVOK 04/04 Q1000
  • 130820Z 24006KT CAVOK 03/03 Q1000
  • 130750Z 22004KT 9999 FEW048 02/02 Q1000
  • 130720Z 25005KT 9999 FEW042 03/03 Q1001

TAF TAF EGTC
Valido dal 13 a 09 ore il 13 a 18 ore UTC


130755Z 1309/1318 24008KT 9999 FEW035



MetMap, La meteo Aeronautica in un colpo d'occhio ! - Copyright ORBIFLY Dicembre 2007 - Disclaimer

ORBIFLY MET'MAP TEAM :

Programmazione e sviluppo : Alexandra Zaïnal
Concezione e sviluppo : Baudouin d'Aumeries
Co-Programmazione e sviluppo : Marc-Olivier Méhu
Supporto tecnico e logistico : Manuel Goepfert
Aiuto per la traduzione : Arnaldo La Scala

Contatto : metmap@orbifly.com




FONTI E CREDITI :

   NOAA